sensor_id;sensor_type;location;lat;lon;timestamp;P1;durP1;ratioP1;P2;durP2;ratioP2
65405;SDS011;52016;51.228;-2.322;2022-11-21T00:02:18;18.17;;;4.22;;
65405;SDS011;52016;51.228;-2.322;2022-11-21T00:05:59;17.77;;;3.95;;
65405;SDS011;52016;51.228;-2.322;2022-11-21T00:09:43;20.40;;;4.30;;
65405;SDS011;52016;51.228;-2.322;2022-11-21T00:13:25;20.88;;;4.82;;
65405;SDS011;52016;51.228;-2.322;2022-11-21T00:17:07;18.08;;;4.43;;
65405;SDS011;52016;51.228;-2.322;2022-11-21T00:20:48;18.35;;;4.18;;
65405;SDS011;52016;51.228;-2.322;2022-11-21T00:24:30;20.83;;;4.15;;
65405;SDS011;52016;51.228;-2.322;2022-11-21T00:28:12;17.88;;;4.00;;
65405;SDS011;52016;51.228;-2.322;2022-11-21T00:31:53;22.75;;;4.13;;
65405;SDS011;52016;51.228;-2.322;2022-11-21T00:35:35;19.30;;;4.47;;
65405;SDS011;52016;51.228;-2.322;2022-11-21T00:39:17;19.77;;;4.57;;
65405;SDS011;52016;51.228;-2.322;2022-11-21T00:42:58;19.02;;;4.65;;
65405;SDS011;52016;51.228;-2.322;2022-11-21T00:46:40;23.75;;;4.72;;
65405;SDS011;52016;51.228;-2.322;2022-11-21T00:50:22;24.83;;;4.90;;
65405;SDS011;52016;51.228;-2.322;2022-11-21T00:54:04;19.98;;;3.75;;
65405;SDS011;52016;51.228;-2.322;2022-11-21T00:57:45;17.23;;;3.78;;
65405;SDS011;52016;51.228;-2.322;2022-11-21T01:01:27;18.02;;;3.90;;
65405;SDS011;52016;51.228;-2.322;2022-11-21T01:05:09;18.42;;;4.55;;
65405;SDS011;52016;51.228;-2.322;2022-11-21T01:08:51;23.27;;;4.78;;
65405;SDS011;52016;51.228;-2.322;2022-11-21T01:12:32;19.83;;;3.67;;
65405;SDS011;52016;51.228;-2.322;2022-11-21T01:16:18;21.50;;;3.63;;
65405;SDS011;52016;51.228;-2.322;2022-11-21T01:20:01;22.83;;;4.57;;
65405;SDS011;52016;51.228;-2.322;2022-11-21T01:23:43;20.08;;;3.40;;
65405;SDS011;52016;51.228;-2.322;2022-11-21T01:27:25;21.45;;;4.10;;
65405;SDS011;52016;51.228;-2.322;2022-11-21T01:31:09;17.10;;;3.78;;
65405;SDS011;52016;51.228;-2.322;2022-11-21T01:34:54;26.10;;;4.30;;
65405;SDS011;52016;51.228;-2.322;2022-11-21T01:38:36;17.77;;;3.78;;
65405;SDS011;52016;51.228;-2.322;2022-11-21T01:42:18;25.50;;;4.53;;
65405;SDS011;52016;51.228;-2.322;2022-11-21T01:49:51;13.95;;;3.40;;
65405;SDS011;52016;51.228;-2.322;2022-11-21T01:53:34;18.23;;;3.83;;
65405;SDS011;52016;51.228;-2.322;2022-11-21T01:57:23;13.00;;;3.50;;
65405;SDS011;52016;51.228;-2.322;2022-11-21T02:01:20;19.27;;;3.90;;
65405;SDS011;52016;51.228;-2.322;2022-11-21T02:05:03;14.13;;;3.08;;
65405;SDS011;52016;51.228;-2.322;2022-11-21T02:08:47;19.20;;;3.85;;
65405;SDS011;52016;51.228;-2.322;2022-11-21T02:12:35;12.85;;;3.72;;
65405;SDS011;52016;51.228;-2.322;2022-11-21T02:16:21;13.10;;;3.03;;
65405;SDS011;52016;51.228;-2.322;2022-11-21T02:20:05;17.70;;;3.67;;
65405;SDS011;52016;51.228;-2.322;2022-11-21T02:23:52;19.30;;;3.80;;
65405;SDS011;52016;51.228;-2.322;2022-11-21T02:27:45;18.10;;;3.50;;
65405;SDS011;52016;51.228;-2.322;2022-11-21T02:31:29;16.60;;;3.63;;
65405;SDS011;52016;51.228;-2.322;2022-11-21T02:35:10;24.02;;;3.17;;
65405;SDS011;52016;51.228;-2.322;2022-11-21T02:38:53;23.33;;;4.20;;
65405;SDS011;52016;51.228;-2.322;2022-11-21T02:46:19;18.92;;;4.05;;
65405;SDS011;52016;51.228;-2.322;2022-11-21T02:50:14;17.55;;;3.47;;
65405;SDS011;52016;51.228;-2.322;2022-11-21T02:54:00;17.58;;;4.10;;
65405;SDS011;52016;51.228;-2.322;2022-11-21T02:57:42;14.05;;;2.90;;
65405;SDS011;52016;51.228;-2.322;2022-11-21T03:01:23;16.55;;;3.33;;
65405;SDS011;52016;51.228;-2.322;2022-11-21T03:05:06;17.42;;;3.33;;
65405;SDS011;52016;51.228;-2.322;2022-11-21T03:08:49;14.18;;;3.13;;
65405;SDS011;52016;51.228;-2.322;2022-11-21T03:12:31;15.18;;;3.83;;
65405;SDS011;52016;51.228;-2.322;2022-11-21T03:16:12;20.90;;;3.58;;
65405;SDS011;52016;51.228;-2.322;2022-11-21T03:19:54;21.63;;;4.15;;
65405;SDS011;52016;51.228;-2.322;2022-11-21T03:23:36;19.17;;;3.25;;
65405;SDS011;52016;51.228;-2.322;2022-11-21T03:27:17;13.82;;;3.10;;
65405;SDS011;52016;51.228;-2.322;2022-11-21T03:30:59;18.67;;;3.95;;
65405;SDS011;52016;51.228;-2.322;2022-11-21T03:34:41;21.02;;;3.55;;
65405;SDS011;52016;51.228;-2.322;2022-11-21T03:38:23;19.00;;;3.70;;
65405;SDS011;52016;51.228;-2.322;2022-11-21T03:42:04;19.55;;;3.60;;
65405;SDS011;52016;51.228;-2.322;2022-11-21T03:45:46;22.63;;;3.92;;
65405;SDS011;52016;51.228;-2.322;2022-11-21T03:49:28;15.52;;;3.33;;
65405;SDS011;52016;51.228;-2.322;2022-11-21T03:53:10;20.25;;;3.88;;
65405;SDS011;52016;51.228;-2.322;2022-11-21T03:56:52;17.10;;;3.67;;
65405;SDS011;52016;51.228;-2.322;2022-11-21T04:00:33;11.18;;;2.70;;
65405;SDS011;52016;51.228;-2.322;2022-11-21T04:04:15;26.42;;;3.60;;
65405;SDS011;52016;51.228;-2.322;2022-11-21T04:07:58;17.65;;;3.25;;
65405;SDS011;52016;51.228;-2.322;2022-11-21T04:11:40;16.63;;;3.65;;
65405;SDS011;52016;51.228;-2.322;2022-11-21T04:15:21;16.08;;;2.95;;
65405;SDS011;52016;51.228;-2.322;2022-11-21T04:19:03;19.13;;;3.50;;
65405;SDS011;52016;51.228;-2.322;2022-11-21T04:22:45;23.48;;;3.63;;
65405;SDS011;52016;51.228;-2.322;2022-11-21T04:26:27;25.52;;;4.35;;
65405;SDS011;52016;51.228;-2.322;2022-11-21T04:30:08;17.23;;;3.65;;
65405;SDS011;52016;51.228;-2.322;2022-11-21T04:33:51;25.67;;;6.45;;
65405;SDS011;52016;51.228;-2.322;2022-11-21T04:37:32;23.55;;;6.85;;
65405;SDS011;52016;51.228;-2.322;2022-11-21T04:41:14;23.52;;;5.00;;
65405;SDS011;52016;51.228;-2.322;2022-11-21T04:44:56;18.50;;;3.45;;
65405;SDS011;52016;51.228;-2.322;2022-11-21T04:48:38;20.73;;;3.60;;
65405;SDS011;52016;51.228;-2.322;2022-11-21T04:52:19;20.67;;;4.00;;
65405;SDS011;52016;51.228;-2.322;2022-11-21T04:56:04;18.40;;;3.85;;
65405;SDS011;52016;51.228;-2.322;2022-11-21T04:59:46;22.50;;;3.20;;
65405;SDS011;52016;51.228;-2.322;2022-11-21T05:03:28;22.20;;;3.10;;
65405;SDS011;52016;51.228;-2.322;2022-11-21T05:07:10;19.15;;;3.05;;
65405;SDS011;52016;51.228;-2.322;2022-11-21T05:10:52;20.67;;;3.15;;
65405;SDS011;52016;51.228;-2.322;2022-11-21T05:14:52;26.15;;;3.50;;
65405;SDS011;52016;51.228;-2.322;2022-11-21T05:18:34;32.75;;;4.13;;
65405;SDS011;52016;51.228;-2.322;2022-11-21T05:22:16;21.25;;;4.07;;
65405;SDS011;52016;51.228;-2.322;2022-11-21T05:25:57;25.38;;;3.72;;
65405;SDS011;52016;51.228;-2.322;2022-11-21T05:29:39;18.50;;;3.50;;
65405;SDS011;52016;51.228;-2.322;2022-11-21T05:33:21;22.27;;;4.20;;
65405;SDS011;52016;51.228;-2.322;2022-11-21T05:37:03;23.48;;;3.50;;
65405;SDS011;52016;51.228;-2.322;2022-11-21T05:40:44;24.98;;;3.78;;
65405;SDS011;52016;51.228;-2.322;2022-11-21T05:44:26;37.28;;;4.43;;
65405;SDS011;52016;51.228;-2.322;2022-11-21T05:48:08;22.52;;;3.95;;
65405;SDS011;52016;51.228;-2.322;2022-11-21T05:51:50;24.13;;;3.53;;
65405;SDS011;52016;51.228;-2.322;2022-11-21T05:55:35;22.23;;;3.42;;
65405;SDS011;52016;51.228;-2.322;2022-11-21T05:59:16;29.83;;;4.30;;
65405;SDS011;52016;51.228;-2.322;2022-11-21T06:02:58;19.80;;;3.10;;
65405;SDS011;52016;51.228;-2.322;2022-11-21T06:06:58;18.90;;;3.45;;
65405;SDS011;52016;51.228;-2.322;2022-11-21T06:10:40;26.85;;;4.03;;
65405;SDS011;52016;51.228;-2.322;2022-11-21T06:14:22;19.48;;;3.20;;
65405;SDS011;52016;51.228;-2.322;2022-11-21T06:18:04;18.83;;;3.40;;
65405;SDS011;52016;51.228;-2.322;2022-11-21T06:21:45;25.92;;;4.82;;
65405;SDS011;52016;51.228;-2.322;2022-11-21T06:25:27;18.48;;;3.70;;
65405;SDS011;52016;51.228;-2.322;2022-11-21T06:29:10;25.23;;;4.68;;
65405;SDS011;52016;51.228;-2.322;2022-11-21T06:32:52;25.35;;;3.42;;
65405;SDS011;52016;51.228;-2.322;2022-11-21T06:36:33;19.10;;;3.63;;
65405;SDS011;52016;51.228;-2.322;2022-11-21T06:40:15;20.13;;;3.60;;
65405;SDS011;52016;51.228;-2.322;2022-11-21T06:43:58;15.68;;;3.42;;
65405;SDS011;52016;51.228;-2.322;2022-11-21T06:47:41;18.25;;;3.25;;
65405;SDS011;52016;51.228;-2.322;2022-11-21T06:51:23;17.95;;;4.07;;
65405;SDS011;52016;51.228;-2.322;2022-11-21T06:55:06;20.33;;;3.58;;
65405;SDS011;52016;51.228;-2.322;2022-11-21T06:58:49;25.83;;;4.45;;
65405;SDS011;52016;51.228;-2.322;2022-11-21T07:02:31;24.23;;;4.97;;
65405;SDS011;52016;51.228;-2.322;2022-11-21T07:06:13;24.52;;;3.75;;
65405;SDS011;52016;51.228;-2.322;2022-11-21T07:09:55;21.73;;;5.97;;
65405;SDS011;52016;51.228;-2.322;2022-11-21T07:13:36;21.08;;;4.13;;
65405;SDS011;52016;51.228;-2.322;2022-11-21T07:17:18;17.83;;;3.47;;
65405;SDS011;52016;51.228;-2.322;2022-11-21T07:21:01;16.20;;;3.53;;
65405;SDS011;52016;51.228;-2.322;2022-11-21T07:24:44;20.95;;;3.80;;
65405;SDS011;52016;51.228;-2.322;2022-11-21T07:28:27;24.60;;;4.05;;
65405;SDS011;52016;51.228;-2.322;2022-11-21T07:32:10;22.38;;;3.75;;
65405;SDS011;52016;51.228;-2.322;2022-11-21T07:35:54;19.33;;;3.80;;
65405;SDS011;52016;51.228;-2.322;2022-11-21T07:39:37;20.92;;;4.00;;
65405;SDS011;52016;51.228;-2.322;2022-11-21T07:43:18;17.88;;;3.78;;
65405;SDS011;52016;51.228;-2.322;2022-11-21T07:47:00;19.10;;;4.05;;
65405;SDS011;52016;51.228;-2.322;2022-11-21T07:50:42;23.52;;;4.03;;
65405;SDS011;52016;51.228;-2.322;2022-11-21T07:54:24;23.27;;;4.05;;
65405;SDS011;52016;51.228;-2.322;2022-11-21T07:58:07;25.02;;;4.63;;
65405;SDS011;52016;51.228;-2.322;2022-11-21T08:01:50;17.80;;;3.90;;
65405;SDS011;52016;51.228;-2.322;2022-11-21T08:05:36;19.95;;;4.05;;
65405;SDS011;52016;51.228;-2.322;2022-11-21T08:09:18;19.05;;;3.83;;
65405;SDS011;52016;51.228;-2.322;2022-11-21T08:13:00;25.00;;;4.53;;
65405;SDS011;52016;51.228;-2.322;2022-11-21T08:16:42;19.38;;;3.75;;
65405;SDS011;52016;51.228;-2.322;2022-11-21T08:20:23;17.00;;;3.67;;
65405;SDS011;52016;51.228;-2.322;2022-11-21T08:24:06;20.75;;;3.83;;
65405;SDS011;52016;51.228;-2.322;2022-11-21T08:27:56;23.40;;;4.32;;
65405;SDS011;52016;51.228;-2.322;2022-11-21T08:31:38;25.00;;;4.82;;
65405;SDS011;52016;51.228;-2.322;2022-11-21T08:35:20;19.35;;;3.97;;
65405;SDS011;52016;51.228;-2.322;2022-11-21T08:39:02;17.33;;;3.65;;
65405;SDS011;52016;51.228;-2.322;2022-11-21T08:42:44;25.85;;;5.10;;
65405;SDS011;52016;51.228;-2.322;2022-11-21T08:46:26;22.73;;;4.28;;
65405;SDS011;52016;51.228;-2.322;2022-11-21T08:50:08;27.02;;;4.82;;
65405;SDS011;52016;51.228;-2.322;2022-11-21T08:53:50;20.08;;;4.35;;
65405;SDS011;52016;51.228;-2.322;2022-11-21T08:57:36;20.88;;;4.65;;
65405;SDS011;52016;51.228;-2.322;2022-11-21T09:01:21;17.67;;;4.03;;
65405;SDS011;52016;51.228;-2.322;2022-11-21T09:05:04;24.13;;;4.70;;
65405;SDS011;52016;51.228;-2.322;2022-11-21T09:08:46;20.23;;;3.83;;
65405;SDS011;52016;51.228;-2.322;2022-11-21T09:12:29;17.30;;;4.03;;
65405;SDS011;52016;51.228;-2.322;2022-11-21T09:16:11;22.38;;;3.50;;
65405;SDS011;52016;51.228;-2.322;2022-11-21T09:20:11;21.92;;;3.90;;
65405;SDS011;52016;51.228;-2.322;2022-11-21T09:23:53;18.80;;;4.05;;
65405;SDS011;52016;51.228;-2.322;2022-11-21T09:27:35;22.00;;;4.68;;
65405;SDS011;52016;51.228;-2.322;2022-11-21T09:31:17;20.38;;;4.00;;
65405;SDS011;52016;51.228;-2.322;2022-11-21T09:34:58;15.82;;;4.00;;
65405;SDS011;52016;51.228;-2.322;2022-11-21T09:38:40;16.45;;;3.88;;
65405;SDS011;52016;51.228;-2.322;2022-11-21T09:46:34;15.55;;;3.50;;
65405;SDS011;52016;51.228;-2.322;2022-11-21T09:50:30;17.02;;;4.03;;
65405;SDS011;52016;51.228;-2.322;2022-11-21T09:54:19;17.88;;;3.65;;
65405;SDS011;52016;51.228;-2.322;2022-11-21T09:58:41;13.83;;;3.80;;
65405;SDS011;52016;51.228;-2.322;2022-11-21T10:02:28;16.08;;;3.30;;
65405;SDS011;52016;51.228;-2.322;2022-11-21T10:06:12;14.85;;;3.60;;
65405;SDS011;52016;51.228;-2.322;2022-11-21T10:30:25;10.43;;;2.30;;
65405;SDS011;52016;51.228;-2.322;2022-11-21T10:34:11;13.75;;;2.35;;
65405;SDS011;52016;51.228;-2.322;2022-11-21T10:38:14;8.52;;;2.30;;
65405;SDS011;52016;51.228;-2.322;2022-11-21T10:46:14;13.75;;;2.45;;
65405;SDS011;52016;51.228;-2.322;2022-11-21T10:50:02;8.93;;;2.40;;
65405;SDS011;52016;51.228;-2.322;2022-11-21T10:54:06;10.70;;;2.25;;
65405;SDS011;52016;51.228;-2.322;2022-11-21T10:58:18;15.30;;;3.25;;
65405;SDS011;52016;51.228;-2.322;2022-11-21T11:02:22;5.78;;;2.20;;
65405;SDS011;52016;51.228;-2.322;2022-11-21T11:06:04;11.07;;;2.00;;
65405;SDS011;52016;51.228;-2.322;2022-11-21T11:09:46;7.60;;;2.08;;
65405;SDS011;52016;51.228;-2.322;2022-11-21T11:13:28;8.45;;;1.88;;
65405;SDS011;52016;51.228;-2.322;2022-11-21T11:17:31;5.40;;;1.85;;
65405;SDS011;52016;51.228;-2.322;2022-11-21T11:21:15;10.15;;;3.22;;
65405;SDS011;52016;51.228;-2.322;2022-11-21T11:25:02;6.63;;;2.42;;
65405;SDS011;52016;51.228;-2.322;2022-11-21T11:28:45;5.60;;;1.80;;
65405;SDS011;52016;51.228;-2.322;2022-11-21T11:32:28;10.38;;;2.20;;
65405;SDS011;52016;51.228;-2.322;2022-11-21T11:40:40;3.38;;;1.38;;
65405;SDS011;52016;51.228;-2.322;2022-11-21T11:44:31;7.97;;;1.85;;
65405;SDS011;52016;51.228;-2.322;2022-11-21T11:48:41;3.97;;;1.42;;
65405;SDS011;52016;51.228;-2.322;2022-11-21T11:52:49;3.85;;;1.48;;
65405;SDS011;52016;51.228;-2.322;2022-11-21T11:56:42;5.18;;;1.70;;
65405;SDS011;52016;51.228;-2.322;2022-11-21T12:00:33;3.30;;;1.30;;
65405;SDS011;52016;51.228;-2.322;2022-11-21T12:04:24;6.82;;;1.60;;
65405;SDS011;52016;51.228;-2.322;2022-11-21T12:08:17;3.15;;;1.40;;
65405;SDS011;52016;51.228;-2.322;2022-11-21T12:12:27;2.42;;;1.08;;
65405;SDS011;52016;51.228;-2.322;2022-11-21T12:16:12;3.75;;;1.35;;
65405;SDS011;52016;51.228;-2.322;2022-11-21T12:19:54;2.55;;;1.25;;
65405;SDS011;52016;51.228;-2.322;2022-11-21T12:23:41;2.28;;;1.13;;
65405;SDS011;52016;51.228;-2.322;2022-11-21T12:27:32;2.63;;;1.35;;
65405;SDS011;52016;51.228;-2.322;2022-11-21T12:31:26;2.67;;;1.30;;
65405;SDS011;52016;51.228;-2.322;2022-11-21T12:39:20;3.70;;;1.30;;
65405;SDS011;52016;51.228;-2.322;2022-11-21T12:55:23;1.80;;;1.40;;
65405;SDS011;52016;51.228;-2.322;2022-11-21T13:03:05;1.90;;;1.20;;
65405;SDS011;52016;51.228;-2.322;2022-11-21T13:07:08;2.58;;;1.10;;
65405;SDS011;52016;51.228;-2.322;2022-11-21T13:18:49;1.20;;;1.00;;
65405;SDS011;52016;51.228;-2.322;2022-11-21T13:33:52;7.30;;;1.98;;
65405;SDS011;52016;51.228;-2.322;2022-11-21T13:45:47;6.20;;;1.67;;
65405;SDS011;52016;51.228;-2.322;2022-11-21T13:57:23;4.38;;;1.20;;
65405;SDS011;52016;51.228;-2.322;2022-11-21T14:05:28;5.15;;;1.00;;
65405;SDS011;52016;51.228;-2.322;2022-11-21T14:12:58;5.20;;;1.30;;
65405;SDS011;52016;51.228;-2.322;2022-11-21T14:16:43;3.33;;;1.00;;
65405;SDS011;52016;51.228;-2.322;2022-11-21T14:20:46;2.70;;;1.00;;
65405;SDS011;52016;51.228;-2.322;2022-11-21T14:24:28;1.85;;;0.73;;
65405;SDS011;52016;51.228;-2.322;2022-11-21T14:28:12;7.80;;;1.08;;
65405;SDS011;52016;51.228;-2.322;2022-11-21T14:32:00;4.25;;;0.95;;
65405;SDS011;52016;51.228;-2.322;2022-11-21T14:35:46;6.80;;;1.30;;
65405;SDS011;52016;51.228;-2.322;2022-11-21T14:39:32;4.10;;;1.40;;
65405;SDS011;52016;51.228;-2.322;2022-11-21T14:43:29;4.18;;;1.35;;
65405;SDS011;52016;51.228;-2.322;2022-11-21T14:51:05;7.63;;;1.80;;
65405;SDS011;52016;51.228;-2.322;2022-11-21T14:55:00;4.88;;;1.65;;
65405;SDS011;52016;51.228;-2.322;2022-11-21T14:59:04;6.35;;;1.67;;
65405;SDS011;52016;51.228;-2.322;2022-11-21T15:02:56;6.07;;;1.65;;
65405;SDS011;52016;51.228;-2.322;2022-11-21T15:06:40;7.90;;;2.35;;
65405;SDS011;52016;51.228;-2.322;2022-11-21T15:10:28;8.90;;;2.17;;
65405;SDS011;52016;51.228;-2.322;2022-11-21T15:14:19;7.65;;;1.90;;
65405;SDS011;52016;51.228;-2.322;2022-11-21T15:18:27;14.55;;;2.35;;
65405;SDS011;52016;51.228;-2.322;2022-11-21T15:22:37;12.02;;;2.20;;
65405;SDS011;52016;51.228;-2.322;2022-11-21T15:26:29;7.72;;;2.10;;
65405;SDS011;52016;51.228;-2.322;2022-11-21T15:34:01;6.22;;;1.77;;
65405;SDS011;52016;51.228;-2.322;2022-11-21T15:46:19;12.00;;;2.83;;
65405;SDS011;52016;51.228;-2.322;2022-11-21T15:50:02;14.77;;;3.10;;
65405;SDS011;52016;51.228;-2.322;2022-11-21T15:53:43;12.05;;;2.60;;
65405;SDS011;52016;51.228;-2.322;2022-11-21T15:57:25;8.32;;;2.50;;
65405;SDS011;52016;51.228;-2.322;2022-11-21T16:01:14;13.02;;;2.30;;
65405;SDS011;52016;51.228;-2.322;2022-11-21T16:05:00;11.65;;;2.53;;
65405;SDS011;52016;51.228;-2.322;2022-11-21T16:08:41;14.93;;;3.25;;
65405;SDS011;52016;51.228;-2.322;2022-11-21T16:12:24;11.63;;;2.72;;
65405;SDS011;52016;51.228;-2.322;2022-11-21T16:16:05;12.68;;;3.05;;
65405;SDS011;52016;51.228;-2.322;2022-11-21T16:19:47;12.57;;;3.10;;
65405;SDS011;52016;51.228;-2.322;2022-11-21T16:23:29;17.40;;;3.40;;
65405;SDS011;52016;51.228;-2.322;2022-11-21T16:27:11;11.68;;;2.75;;
65405;SDS011;52016;51.228;-2.322;2022-11-21T16:30:53;19.88;;;2.75;;
65405;SDS011;52016;51.228;-2.322;2022-11-21T16:34:37;15.82;;;3.30;;
65405;SDS011;52016;51.228;-2.322;2022-11-21T16:38:19;13.98;;;2.30;;
65405;SDS011;52016;51.228;-2.322;2022-11-21T16:42:03;8.57;;;2.45;;
65405;SDS011;52016;51.228;-2.322;2022-11-21T16:45:45;18.65;;;3.03;;
65405;SDS011;52016;51.228;-2.322;2022-11-21T16:49:28;14.77;;;3.28;;
65405;SDS011;52016;51.228;-2.322;2022-11-21T16:53:10;20.05;;;4.78;;
65405;SDS011;52016;51.228;-2.322;2022-11-21T16:56:52;14.07;;;3.70;;
65405;SDS011;52016;51.228;-2.322;2022-11-21T17:00:34;17.95;;;3.60;;
65405;SDS011;52016;51.228;-2.322;2022-11-21T17:04:15;18.17;;;3.10;;
65405;SDS011;52016;51.228;-2.322;2022-11-21T17:07:58;11.90;;;2.80;;
65405;SDS011;52016;51.228;-2.322;2022-11-21T17:11:39;16.73;;;3.25;;
65405;SDS011;52016;51.228;-2.322;2022-11-21T17:15:21;19.20;;;3.00;;
65405;SDS011;52016;51.228;-2.322;2022-11-21T17:19:03;14.52;;;3.28;;
65405;SDS011;52016;51.228;-2.322;2022-11-21T17:22:46;18.13;;;3.60;;
65405;SDS011;52016;51.228;-2.322;2022-11-21T17:26:28;16.35;;;3.58;;
65405;SDS011;52016;51.228;-2.322;2022-11-21T17:30:10;17.05;;;3.35;;
65405;SDS011;52016;51.228;-2.322;2022-11-21T17:33:56;12.15;;;2.92;;
65405;SDS011;52016;51.228;-2.322;2022-11-21T17:37:39;18.52;;;5.30;;
65405;SDS011;52016;51.228;-2.322;2022-11-21T17:41:21;13.65;;;3.13;;
65405;SDS011;52016;51.228;-2.322;2022-11-21T17:45:04;17.48;;;3.63;;
65405;SDS011;52016;51.228;-2.322;2022-11-21T17:48:48;13.35;;;3.80;;
65405;SDS011;52016;51.228;-2.322;2022-11-21T17:52:35;16.67;;;4.45;;
65405;SDS011;52016;51.228;-2.322;2022-11-21T17:56:22;26.55;;;6.38;;
65405;SDS011;52016;51.228;-2.322;2022-11-21T18:00:06;20.48;;;5.32;;
65405;SDS011;52016;51.228;-2.322;2022-11-21T18:07:35;18.80;;;4.90;;
65405;SDS011;52016;51.228;-2.322;2022-11-21T18:11:18;20.42;;;5.38;;
65405;SDS011;52016;51.228;-2.322;2022-11-21T18:15:01;16.42;;;5.57;;
65405;SDS011;52016;51.228;-2.322;2022-11-21T18:18:43;10.57;;;3.60;;
65405;SDS011;52016;51.228;-2.322;2022-11-21T18:22:25;14.05;;;3.50;;
65405;SDS011;52016;51.228;-2.322;2022-11-21T18:26:10;19.40;;;3.88;;
65405;SDS011;52016;51.228;-2.322;2022-11-21T18:29:54;14.63;;;4.18;;
65405;SDS011;52016;51.228;-2.322;2022-11-21T18:33:35;14.27;;;4.13;;
65405;SDS011;52016;51.228;-2.322;2022-11-21T18:37:18;14.38;;;4.75;;
65405;SDS011;52016;51.228;-2.322;2022-11-21T18:41:04;12.57;;;3.85;;
65405;SDS011;52016;51.228;-2.322;2022-11-21T18:44:47;16.35;;;4.32;;
65405;SDS011;52016;51.228;-2.322;2022-11-21T18:48:29;20.48;;;5.07;;
65405;SDS011;52016;51.228;-2.322;2022-11-21T18:52:30;15.18;;;4.50;;
65405;SDS011;52016;51.228;-2.322;2022-11-21T18:56:14;29.90;;;11.10;;
65405;SDS011;52016;51.228;-2.322;2022-11-21T18:59:56;12.30;;;4.65;;
65405;SDS011;52016;51.228;-2.322;2022-11-21T19:03:38;12.70;;;4.90;;
65405;SDS011;52016;51.228;-2.322;2022-11-21T19:07:20;13.85;;;5.15;;
65405;SDS011;52016;51.228;-2.322;2022-11-21T19:11:05;8.35;;;3.97;;
65405;SDS011;52016;51.228;-2.322;2022-11-21T19:14:49;14.32;;;3.60;;
65405;SDS011;52016;51.228;-2.322;2022-11-21T19:18:32;8.85;;;3.53;;
65405;SDS011;52016;51.228;-2.322;2022-11-21T19:22:20;13.15;;;3.17;;
65405;SDS011;52016;51.228;-2.322;2022-11-21T19:26:04;11.40;;;3.83;;
65405;SDS011;52016;51.228;-2.322;2022-11-21T19:29:56;12.32;;;3.80;;
65405;SDS011;52016;51.228;-2.322;2022-11-21T19:33:37;9.43;;;3.45;;
65405;SDS011;52016;51.228;-2.322;2022-11-21T19:37:19;15.75;;;3.85;;
65405;SDS011;52016;51.228;-2.322;2022-11-21T19:41:01;9.65;;;3.45;;
65405;SDS011;52016;51.228;-2.322;2022-11-21T19:44:53;11.25;;;3.70;;
65405;SDS011;52016;51.228;-2.322;2022-11-21T19:48:35;11.18;;;4.05;;
65405;SDS011;52016;51.228;-2.322;2022-11-21T19:52:17;12.45;;;4.05;;
65405;SDS011;52016;51.228;-2.322;2022-11-21T19:56:10;10.60;;;3.00;;
65405;SDS011;52016;51.228;-2.322;2022-11-21T20:00:00;11.85;;;4.47;;
65405;SDS011;52016;51.228;-2.322;2022-11-21T20:03:42;7.97;;;3.05;;
65405;SDS011;52016;51.228;-2.322;2022-11-21T20:07:25;13.27;;;4.10;;
65405;SDS011;52016;51.228;-2.322;2022-11-21T20:11:08;13.82;;;3.88;;
65405;SDS011;52016;51.228;-2.322;2022-11-21T20:14:52;13.63;;;3.15;;
65405;SDS011;52016;51.228;-2.322;2022-11-21T20:18:34;9.13;;;3.25;;
65405;SDS011;52016;51.228;-2.322;2022-11-21T20:22:16;7.68;;;2.63;;
65405;SDS011;52016;51.228;-2.322;2022-11-21T20:25:58;17.83;;;10.32;;
65405;SDS011;52016;51.228;-2.322;2022-11-21T20:29:39;12.68;;;4.10;;
65405;SDS011;52016;51.228;-2.322;2022-11-21T20:33:21;9.05;;;4.32;;
65405;SDS011;52016;51.228;-2.322;2022-11-21T20:37:03;10.48;;;4.72;;
65405;SDS011;52016;51.228;-2.322;2022-11-21T20:40:50;17.25;;;5.85;;
65405;SDS011;52016;51.228;-2.322;2022-11-21T20:44:33;9.23;;;3.28;;
65405;SDS011;52016;51.228;-2.322;2022-11-21T20:48:37;9.27;;;4.03;;
65405;SDS011;52016;51.228;-2.322;2022-11-21T20:52:18;8.57;;;4.15;;
65405;SDS011;52016;51.228;-2.322;2022-11-21T20:56:20;10.40;;;4.10;;
65405;SDS011;52016;51.228;-2.322;2022-11-21T21:00:02;7.50;;;3.03;;
65405;SDS011;52016;51.228;-2.322;2022-11-21T21:03:44;8.38;;;3.20;;
65405;SDS011;52016;51.228;-2.322;2022-11-21T21:07:26;11.65;;;3.50;;
65405;SDS011;52016;51.228;-2.322;2022-11-21T21:11:18;8.55;;;3.30;;
65405;SDS011;52016;51.228;-2.322;2022-11-21T21:15:21;10.95;;;3.40;;
65405;SDS011;52016;51.228;-2.322;2022-11-21T21:19:03;10.30;;;3.50;;
65405;SDS011;52016;51.228;-2.322;2022-11-21T21:22:45;9.15;;;3.95;;
65405;SDS011;52016;51.228;-2.322;2022-11-21T21:26:31;10.85;;;3.00;;
65405;SDS011;52016;51.228;-2.322;2022-11-21T21:30:22;8.75;;;2.60;;
65405;SDS011;52016;51.228;-2.322;2022-11-21T21:34:03;6.68;;;3.13;;
65405;SDS011;52016;51.228;-2.322;2022-11-21T21:37:45;10.40;;;3.72;;
65405;SDS011;52016;51.228;-2.322;2022-11-21T21:41:29;7.60;;;2.60;;
65405;SDS011;52016;51.228;-2.322;2022-11-21T21:45:11;8.77;;;2.80;;
65405;SDS011;52016;51.228;-2.322;2022-11-21T21:48:54;5.97;;;2.80;;
65405;SDS011;52016;51.228;-2.322;2022-11-21T21:52:37;6.63;;;2.70;;
65405;SDS011;52016;51.228;-2.322;2022-11-21T21:56:19;5.53;;;2.97;;
65405;SDS011;52016;51.228;-2.322;2022-11-21T22:00:01;8.18;;;3.95;;
65405;SDS011;52016;51.228;-2.322;2022-11-21T22:03:43;7.93;;;3.72;;
65405;SDS011;52016;51.228;-2.322;2022-11-21T22:07:26;7.82;;;3.10;;
65405;SDS011;52016;51.228;-2.322;2022-11-21T22:14:53;5.82;;;1.92;;
65405;SDS011;52016;51.228;-2.322;2022-11-21T22:18:35;4.45;;;2.10;;
65405;SDS011;52016;51.228;-2.322;2022-11-21T22:22:17;5.18;;;1.90;;
65405;SDS011;52016;51.228;-2.322;2022-11-21T22:29:39;6.65;;;2.47;;
65405;SDS011;52016;51.228;-2.322;2022-11-21T22:43:26;7.15;;;3.05;;
65405;SDS011;52016;51.228;-2.322;2022-11-21T22:51:10;9.60;;;3.28;;
65405;SDS011;52016;51.228;-2.322;2022-11-21T22:54:53;8.88;;;4.60;;
65405;SDS011;52016;51.228;-2.322;2022-11-21T22:58:39;17.08;;;7.45;;
65405;SDS011;52016;51.228;-2.322;2022-11-21T23:02:20;7.45;;;3.60;;
65405;SDS011;52016;51.228;-2.322;2022-11-21T23:09:46;7.65;;;3.63;;
65405;SDS011;52016;51.228;-2.322;2022-11-21T23:13:28;7.03;;;3.15;;
65405;SDS011;52016;51.228;-2.322;2022-11-21T23:17:10;4.53;;;2.55;;
65405;SDS011;52016;51.228;-2.322;2022-11-21T23:20:51;6.75;;;2.42;;
65405;SDS011;52016;51.228;-2.322;2022-11-21T23:24:33;6.53;;;2.38;;
65405;SDS011;52016;51.228;-2.322;2022-11-21T23:28:16;5.25;;;1.83;;
65405;SDS011;52016;51.228;-2.322;2022-11-21T23:31:59;8.95;;;2.40;;
65405;SDS011;52016;51.228;-2.322;2022-11-21T23:35:41;5.82;;;2.70;;
65405;SDS011;52016;51.228;-2.322;2022-11-21T23:39:24;5.47;;;2.33;;
65405;SDS011;52016;51.228;-2.322;2022-11-21T23:43:05;7.43;;;2.42;;
65405;SDS011;52016;51.228;-2.322;2022-11-21T23:46:48;13.68;;;5.28;;
65405;SDS011;52016;51.228;-2.322;2022-11-21T23:50:30;4.07;;;1.80;;
65405;SDS011;52016;51.228;-2.322;2022-11-21T23:54:15;7.65;;;2.30;;
65405;SDS011;52016;51.228;-2.322;2022-11-21T23:57:57;8.38;;;3.10;;
